Flight Track Log - Related Links

Times and Time Zones

All times are in EDT time to prevent confusion due to time zone crossing. See the ACA935 flight status page for this flight to view local times or setup timezone preferences in your user account.

Time Position Orientation Groundspeed Altitude Reporting Facility
EDT Latitude Longitude Course Direction KTS MPH feet Rate Location/Type
07:44AM 26.0750 -80.1367 North 199 229 1,000  Level Miami Center
07:45AM 26.0844 -80.0814 79° East 165 190 2,500 1,776 Climbing Miami Center
07:46AM 26.0964 -80.0100 79° East 196 226 4,700 1,250 Climbing Miami Center
07:47AM 26.1672 -80.0211 352° North 171 197 5,000 750 Climbing Miami Center
07:48AM 26.5614 -80.1408 North  Level Estimated
07:48AM 26.2203 -80.0781 316° Northwest 196 226 6,200  Level Miami Center
07:49AM 26.6837 -80.1378 North  Level Estimated
07:49AM 26.2733 -80.1353 316° Northwest 234 269 9,400  Level Miami Center
07:50AM 26.3347 -80.1972 318° Northwest 271 312 11,300 2,100 Climbing Miami Center
07:51AM 26.4169 -80.2575 327° Northwest 316 364 13,600 2,450 Climbing Miami Center
07:52AM 26.5119 -80.2950 341° North 338 389 16,200 2,350 Climbing Miami Center
07:53AM 26.6133 -80.3350 341° North 360 414 18,300 2,000 Climbing Miami Center
07:54AM 26.7147 -80.3753 340° North 373 429 20,200 1,850 Climbing Miami Center
07:55AM 26.8139 -80.4178 339° North 379 436 22,000 1,850 Climbing Miami Center
07:56AM 26.9236 -80.4561 343° North 392 451 23,900 1,700 Climbing Miami Center
07:57AM 27.0311 -80.4992 340° North 400 460 25,400 1,400 Climbing Miami Center
07:58AM 27.1431 -80.5400 342° North 411 473 26,700 2,200 Climbing Miami Center
07:59AM 27.2503 -80.5831 340° North 411 473 29,800 2,250 Climbing Miami Center
08:00AM 27.3517 -80.6214 341° North 401 461 31,200 1,450 Climbing Miami Center
08:01AM 27.4531 -80.6622 340° North 390 449 32,700 1,650 Climbing Miami Center
08:02AM 27.5500 -80.6981 342° North 378 435 34,500 1,100 Climbing Miami Center
08:03AM 27.6472 -80.7367 341° North 368 423 34,900 850 Climbing Miami Center
08:04AM 27.7422 -80.7725 342° North 368 423 36,200 1,050 Climbing Miami Center
08:05AM 27.8475 -80.8139 341° North 368 423 37,000 350 Climbing Miami Center
08:06AM 27.9447 -80.8525 341° North 363 418 36,900 -50 Descending Miami Center
08:07AM 28.0436 -80.8911 341° North 368 423 36,900 38 Level Miami Center
08:09AM 28.1958 -80.9472 342° North 378 435 37,000  Climbing Jacksonville Center
08:10AM 28.2986 -80.9806 344° North 378 435 36,900  Descending Jacksonville Center
08:11AM 28.3969 -81.0142 343° North 383 441 37,000  Climbing Jacksonville Center
08:12AM 28.5000 -81.0547 341° North 388 447 36,900 -50 Descending Jacksonville Center
08:13AM 28.5983 -81.0861 344° North 383 441 36,900 50 Level Jacksonville Center
08:14AM 28.6992 -81.1222 343° North 383 441 37,000 50 Climbing Jacksonville Center
08:15AM 28.8039 -81.1464 349° North 378 435 37,000 -50 Level Jacksonville Center
08:16AM 28.9106 -81.1706 349° North 378 435 36,900  Descending Jacksonville Center
08:17AM 29.0172 -81.1947 349° North 378 435 37,000  Climbing Jacksonville Center
08:18AM 29.1242 -81.2192 349° North 378 435 36,900 -50 Descending Jacksonville Center
08:19AM 29.2289 -81.2436 348° North 378 435 36,900  Level Jacksonville Center
08:20AM 29.3333 -81.2681 348° North 378 435 36,900  Level Jacksonville Center
08:21AM 29.4381 -81.2925 349° North 378 435 36,900 50 Level Jacksonville Center
08:22AM 29.5533 -81.3242 347° North 378 435 37,000  Climbing Jacksonville Center
08:23AM 29.6600 -81.3511 348° North 378 435 36,900  Descending Jacksonville Center
08:24AM 29.7689 -81.3756 349° North 383 441 37,000 50 Climbing Jacksonville Center
08:25AM 29.8800 -81.4025 348° North 390 449 37,000  Level Jacksonville Center
08:26AM 29.9867 -81.4297 348° North 390 449 37,000  Level Jacksonville Center
08:27AM 30.0914 -81.4544 348° North 390 449 37,000  Level Jacksonville Center
08:28AM 30.2003 -81.4819 348° North 390 449 37,000 -50 Level Jacksonville Center
08:29AM 30.3092 -81.5067 349° North 390 449 36,900  Descending Jacksonville Center
08:30AM 30.4239 -81.5075 360° North 395 455 37,000 50 Climbing Jacksonville Center
08:31AM 30.5408 -81.4986 North 401 461 37,000 -50 Level Jacksonville Center
08:32AM 30.6597 -81.4869 North 412 474 36,900 -50 Descending Jacksonville Center
08:33AM 30.7786 -81.4781 North 423 487 36,900 50 Level Jacksonville Center
08:34AM 30.8994 -81.4689 North 423 487 37,000 50 Climbing Jacksonville Center
08:35AM 31.0206 -81.4575 North 423 487 37,000  Level Jacksonville Center
08:36AM 31.1414 -81.4483 North 423 487 37,000  Level Jacksonville Center
08:37AM 31.2644 -81.4367 North 428 493 37,000  Level Jacksonville Center
08:38AM 31.3750 -81.4058 13° North 450 518 37,000  Level Jacksonville Center
08:39AM 31.5103 -81.3792 10° North 450 518 37,000  Level Jacksonville Center
08:40AM 31.6353 -81.3650 North 450 518 37,000  Level Jacksonville Center
08:41AM 31.7439 -81.3536 North 437 503 37,000  Level Jacksonville Center
08:42AM 31.8772 -81.3392 North 442 509 37,000 -50 Level Jacksonville Center
08:43AM 32.0022 -81.3247 North 442 509 36,900 -50 Descending Jacksonville Center
08:44AM 32.1275 -81.3103 North 447 514 36,900 50 Level Jacksonville Center
08:45AM 32.2506 -81.2983 North 447 514 37,000 50 Climbing Jacksonville Center
08:46AM 32.3775 -81.2814 North 441 507 37,000  Level Jacksonville Center
08:47AM 32.4903 -81.2719 North 441 507 37,000  Level Jacksonville Center
08:48AM 32.6258 -81.2572 North 441 507 37,000  Level Jacksonville Center
08:49AM 32.7467 -81.2403 North 441 507 37,000 -50 Level Jacksonville Center
08:50AM 32.8694 -81.2256 North 441 507 36,900 -50 Descending Jacksonville Center
08:51AM 32.9883 -81.2133 North 441 507 36,900  Level Jacksonville Center
08:52AM 33.1092 -81.2014 North 441 507 36,900  Level Jacksonville Center
08:53AM 33.2300 -81.1867 North 441 507 36,900 50 Level Jacksonville Center
08:54AM 33.3531 -81.1694 North 441 507 37,000 50 Climbing Jacksonville Center
08:55AM 33.4758 -81.1569 North 441 507 37,000  Level Jacksonville Center
08:56AM 33.5989 -81.1422 North 441 507 37,000 -50 Level Jacksonville Center
08:57AM 33.7219 -81.1272 North 441 507 36,900  Descending Jacksonville Center
08:58AM 33.8425 -81.1097 North 441 507 37,000 50 Climbing Jacksonville Center
08:59AM 33.9675 -81.0947 North 441 507 37,000  Level Jacksonville Center
09:01AM 34.1925 -81.0678 North 455 524 37,000  Level Atlanta Center
09:02AM 34.3203 -81.0886 352° North 433 498 37,000  Level Atlanta Center
09:03AM 34.4317 -81.1275 344° North 420 483 37,000  Level Atlanta Center
09:04AM 34.5389 -81.1617 345° North 410 472 37,000  Level Atlanta Center
09:05AM 34.6525 -81.1931 347° North 410 472 37,000  Level Atlanta Center
09:06AM 34.7619 -81.2322 344° North 410 472 37,000  Level Atlanta Center
09:07AM 34.8733 -81.2664 346° North 410 472 37,000  Level Atlanta Center
09:08AM 34.9939 -81.2525 North 410 472 37,000  Level Atlanta Center
09:09AM 35.1164 -81.2203 12° North 422 486 37,000  Level Atlanta Center
09:10AM 35.2386 -81.1908 11° North 438 504 37,000  Level Atlanta Center
09:11AM 35.3569 -81.1586 13° North 443 510 37,000  Level Atlanta Center
09:12AM 35.4792 -81.1264 12° North 443 510 37,000  Level Atlanta Center
09:13AM 35.5933 -81.0967 12° North 459 528 37,000  Level Atlanta Center
09:14AM 35.7178 -81.0667 11° North 459 528 37,000  Level Atlanta Center
09:15AM 35.8422 -81.0339 12° North 459 528 37,000  Level Atlanta Center
09:16AM 35.9644 -81.0039 11° North 454 522 37,000  Level Atlanta Center
09:17AM 36.0867 -80.9736 11° North 449 517 37,000  Level Atlanta Center
09:18AM 36.2089 -80.9406 12° North 449 517 37,000  Level Atlanta Center
09:19AM 36.3311 -80.9075 12° North 449 517 37,000 -50 Level Atlanta Center
09:20AM 36.4514 -80.8769 12° North 449 517 36,900 -500 Descending Atlanta Center
09:21AM 36.5736 -80.8464 11° North 449 517 36,000 -644 Descending Atlanta Center
09:23AM 36.8217 -80.7839 11° North 449 517 35,000 -339 Descending Washington Center
09:24AM 36.9400 -80.7503 13° North 444 511 35,000  Level Washington Center
09:25AM 37.0622 -80.7219 10° North 444 511 35,000  Level Washington Center
09:26AM 37.1828 -80.6806 15° North 439 505 35,000  Level Washington Center
09:27AM 37.2928 -80.6461 14° North 439 505 35,000  Level Washington Center
09:28AM 37.4156 -80.6047 15° North 439 505 35,000  Level Washington Center
09:29AM 37.5361 -80.5656 14° North 439 505 35,000  Level Washington Center
09:30AM 37.6589 -80.5236 15° North 439 505 35,000  Level Washington Center
09:31AM 37.7794 -80.4817 15° North 444 511 35,000  Level Washington Center
09:32AM 37.9019 -80.4422 14° North 444 511 35,000  Level Washington Center
09:33AM 38.0353 -80.3981 15° North 444 511 35,000  Level Washington Center
09:34AM 38.1539 -80.3556 16° North 444 511 35,000  Level Washington Center
09:35AM 38.2742 -80.3156 15° North 444 511 35,000  Level Washington Center
09:36AM 38.3947 -80.2731 15° North 444 511 35,000  Level Washington Center
09:37AM 38.5131 -80.2328 15° North 444 511 35,000  Level Washington Center
09:38AM 38.6231 -80.1969 14° North 444 511 35,000  Level Washington Center
09:40AM 38.8308 -80.1172 17° North 446 513 35,000  Level Cleveland Center
09:41AM 38.9753 -80.0911 North 441 507 35,000  Level Cleveland Center
09:42AM 39.0939 -80.0950 359° North 434 499 35,000  Level Cleveland Center
09:43AM 39.2142 -80.0797 North 433 498 35,000  Level Cleveland Center
09:44AM 39.3344 -80.0458 12° North 434 499 35,000  Level Cleveland Center
09:45AM 39.4542 -80.0169 11° North 436 502 35,000  Level Cleveland Center
09:46AM 39.5742 -79.9900 10° North 436 502 35,000  Level Cleveland Center
09:47AM 39.7186 -79.9556 10° North 438 504 35,000  Level Cleveland Center
09:48AM 39.8392 -79.9275 10° North 438 504 35,000  Level Cleveland Center
09:49AM 39.9583 -79.8983 11° North 438 504 35,000  Level Cleveland Center
09:50AM 40.0775 -79.8700 10° North 438 504 35,000  Level Cleveland Center
09:51AM 40.1956 -79.8422 10° North 436 502 35,000  Level Cleveland Center
09:52AM 40.3375 -79.8069 11° North 437 503 35,000  Level Cleveland Center
09:53AM 40.4561 -79.7797 10° North 437 503 35,000  Level Cleveland Center
09:54AM 40.5750 -79.7511 10° North 438 504 35,000  Level Cleveland Center
09:55AM 40.6928 -79.7247 10° North 437 503 35,000 -290 Level Cleveland Center
09:56AM 40.8114 -79.6953 11° North 437 503 34,400 -484 Descending Cleveland Center
09:57AM 40.9536 -79.6611 10° North 436 502 34,000 -194 Descending Cleveland Center
09:58AM 41.0706 -79.6317 11° North 432 497 34,000  Level Cleveland Center
09:59AM 41.1875 -79.6019 11° North 431 496 34,000  Level Cleveland Center
10:00AM 41.3042 -79.5736 10° North 430 495 34,000  Level Cleveland Center
10:01AM 41.4333 -79.5411 11° North 429 494 34,000  Level Cleveland Center
10:02AM 41.5519 -79.5103 11° North 430 495 34,000 -677 Level Cleveland Center
10:03AM 41.6719 -79.4808 10° North 436 502 32,600 -1,403 Descending Cleveland Center
10:04AM 41.7933 -79.4514 10° North 440 506 31,100 -1,403 Descending Cleveland Center
10:05AM 41.9106 -79.4511 360° North 418 481 29,700 -1,561 Descending Cleveland Center
10:06AM 42.0461 -79.4550 359° North 412 474 27,900 -1,659 Descending Cleveland Center
10:07AM 42.1567 -79.4594 358° North 399 459 26,300 -1,500 Descending Cleveland Center
10:08AM 42.2622 -79.4161 17° North 404 465 24,800 -1,452 Descending Cleveland Center
10:10AM 42.3675 -79.4003 North 385 443 23,300 -1,452 Descending Cleveland Center
10:11AM 42.4783 -79.3786 North 384 442 21,800 -1,452 Descending Cleveland Center
10:12AM 42.5808 -79.3606 North 373 429 20,300 -1,463 Descending Cleveland Center
10:13AM 42.6806 -79.3406 North 365 420 18,800 -1,317 Descending Cleveland Center
10:14AM 42.7803 -79.3203 North 364 419 17,600 -1,258 Descending Cleveland Center
10:15AM 42.8961 -79.3172 North 341 392 16,200 -701 Descending Cleveland Center
10:16AM 43.0000 -79.3167 360° North 340 391 16,000 -267 Descending Toronto Center
10:17AM 43.1000 -79.3167 360° North 340 391 15,600 -950 Descending Toronto Center
10:18AM 43.1833 -79.3333 352° North 330 380 14,100 -1,400 Descending Toronto Center
10:19AM 43.2667 -79.3333 360° North 310 357 12,800 -1,100 Descending Toronto Center
10:20AM 43.3500 -79.3500 352° North 280 322 11,900 -550 Descending Toronto Center
10:21AM 43.4167 -79.4000 331° Northwest 260 299 11,700 -800 Descending Toronto Center
10:22AM 43.4667 -79.4500 324° Northwest 250 288 10,300 -900 Descending Toronto Center
10:23AM 43.5333 -79.5000 331° Northwest 240 276 9,900 -950 Descending Toronto Center
10:24AM 43.6000 -79.5167 350° North 240 276 8,400 -1,500 Descending Toronto Center
10:25AM 43.6500 -79.4333 50° Northeast 280 322 6,900 -1,200 Descending Toronto Center
10:26AM 43.7000 -79.3500 50° Northeast 270 311 6,000 -1,000 Descending Toronto Center
10:27AM 43.7500 -79.3167 26° Northeast 240 276 4,900 -950 Descending Toronto Center
10:28AM 43.8000 -79.3500 334° Northwest 210 242 4,100 -450 Descending Toronto Center
10:29AM 43.7833 -79.4000 245° Southwest 170 196 4,000 -500 Descending Toronto Center
10:30AM 43.7500 -79.4500 227° Southwest 160 184 3,100 -850 Descending Toronto Center
10:31AM 43.7167 -79.5000 227° Southwest 150 173 2,300 -750 Descending Toronto Center
10:32AM 43.7000 -79.5333 235° Southwest 130 150 1,600 -700 Descending Toronto Center
10:33AM 43.6667 -79.5667 216° Southwest 120 138 900 -550 Descending Toronto Center
10:34AM 43.6500 -79.6167 245° Southwest 120 138 500 -400 Descending Toronto Center

Login

Don't have an account? Register now (free) for customized features, flight alerts, and more!